Flight Track Log - Related Links

Times and Time Zones

All times are in EDT time to prevent confusion due to time zone crossing. See the WBR2622 flight status page for this flight to view local times or setup timezone preferences in your user account.

Time Position Orientation Groundspeed Altitude Reporting Facility
EDT Latitude Longitude Course Direction KTS MPH feet Rate Location/Type
Sun 11:24:53 AM 38.7333 -90.3333 344° North 108 124 1,500  Level Gateway (St. Louis) TRACON
Sun 11:25:53 AM 38.7500 -90.3000 57° Northeast 115 132 2,300 750 Climbing Gateway (St. Louis) TRACON
Sun 11:26:53 AM 38.7667 -90.2500 67° East 121 139 3,000 350 Climbing Gateway (St. Louis) TRACON
Sun 11:27:53 AM 38.7833 -90.2167 57° Northeast 148 170 3,000  Level Gateway (St. Louis) TRACON
Sun 11:28:53 AM 38.8000 -90.1667 67° East 150 173 3,000 50 Level Gateway (St. Louis) TRACON
Sun 11:29:53 AM 38.8333 -90.1167 49° Northeast 152 175 3,100 50 Climbing Gateway (St. Louis) TRACON
Sun 11:30:00 AM 39.0020 -90.4570 344° North  Level FlightAware Approximate
Sun 11:30:54 AM 38.8500 -90.0667 67° East 154 177 3,100  Level Gateway (St. Louis) TRACON
Sun 11:31:24 AM 38.8561 -90.0622 30° Northeast 162 186 3,100 467 Level Kansas City Center
Sun 11:32:24 AM 38.9075 -90.0694 354° North 157 181 3,800 689 Climbing Kansas City Center
Sun 11:33:26 AM 38.9486 -90.0756 353° North 152 175 4,500 571 Climbing Kansas City Center
Sun 11:34:30 AM 38.9906 -90.0825 353° North 152 175 5,000 288 Climbing Kansas City Center
Sun 11:35:31 AM 39.0389 -90.0903 353° North 161 185 5,100  Climbing Kansas City Center
Sun 11:36:34 AM 39.0894 -90.0981 353° North 177 204 5,000  Descending Kansas City Center
Sun 11:37:35 AM 39.1436 -90.1292 336° Northwest 177 204 5,100 49 Climbing Kansas City Center
Sun 11:38:37 AM 39.1889 -90.1572 334° Northwest 180 207 5,100 -48 Level Kansas City Center
Sun 11:39:40 AM 39.2347 -90.1817 338° Northwest 179 206 5,000 -48 Descending Kansas City Center
Sun 11:40:41 AM 39.2808 -90.2092 335° Northwest 181 208 5,000  Level Kansas City Center
Sun 11:41:41 AM 39.3264 -90.2361 335° Northwest 181 208 5,000  Level Kansas City Center
Sun 11:42:45 AM 39.3731 -90.2628 336° Northwest 183 211 5,000  Level Kansas City Center
Sun 11:43:48 AM 39.4286 -90.2953 336° Northwest 183 211 5,000  Level Kansas City Center
Sun 11:44:49 AM 39.4756 -90.3203 338° Northwest 182 209 5,000  Level Kansas City Center
Sun 11:45:49 AM 39.5214 -90.3511 333° Northwest 183 211 5,000 97 Level Kansas City Center
Sun 11:46:53 AM 39.5661 -90.3794 334° Northwest 182 209 5,200 333 Climbing Kansas City Center
Sun 11:47:55 AM 39.6094 -90.4086 333° Northwest 177 204 5,700 390 Climbing Kansas City Center
Sun 11:48:56 AM 39.6506 -90.4333 335° Northwest 168 193 6,000 146 Climbing Kansas City Center
Sun 11:49:58 AM 39.7050 -90.4697 333° Northwest 179 206 6,000  Level Kansas City Center
Sun 11:51:01 AM 39.7497 -90.4947 337° Northwest 178 205 6,000 48 Level Kansas City Center
Sun 11:52:03 AM 39.7944 -90.5192 337° Northwest 176 203 6,100  Climbing Kansas City Center
Sun 11:53:04 AM 39.8386 -90.5483 333° Northwest 176 203 6,000 -48 Descending Kansas City Center
Sun 11:54:07 AM 39.8833 -90.5750 335° Northwest 176 203 6,000  Level Kansas City Center
Sun 11:55:08 AM 39.9275 -90.6014 335° Northwest 175 201 6,000 48 Level Kansas City Center
Sun 11:56:12 AM 39.9814 -90.6344 335° Northwest 176 203 6,100 48 Climbing Kansas City Center
Sun 11:57:13 AM 40.0253 -90.6614 335° Northwest 176 203 6,100  Level Kansas City Center
Sun 11:58:14 AM 40.0697 -90.6894 334° Northwest 176 203 6,100 -48 Level Kansas City Center
Sun 11:59:17 AM 40.1150 -90.7178 334° Northwest 178 205 6,000 -48 Descending Kansas City Center
Sun 12:00:18 PM 40.1597 -90.7444 336° Northwest 178 205 6,000  Level Kansas City Center
Sun 12:01:21 PM 40.2047 -90.7711 336° Northwest 177 204 6,000  Level Kansas City Center
Sun 12:02:22 PM 40.2492 -90.7981 335° Northwest 177 204 6,000 48 Level Kansas City Center
Sun 12:03:26 PM 40.3031 -90.8319 334° Northwest 178 205 6,100 48 Climbing Kansas City Center
Sun 12:04:28 PM 40.3472 -90.8606 334° Northwest 177 204 6,100 -48 Level Kansas City Center
Sun 12:05:30 PM 40.3942 -90.8872 337° Northwest 179 206 6,000 -49 Descending Kansas City Center
Sun 12:06:30 PM 40.4381 -90.9117 337° Northwest 177 204 6,000 -194 Level Kansas City Center
Sun 12:07:34 PM 40.4800 -90.9378 335° Northwest 170 196 5,600 -482 Descending Kansas City Center
Sun 12:08:47 PM 40.5350 -90.9744 333° Northwest 179 206 4,900 -622 Descending Chicago Center
Sun 12:09:49 PM 40.5789 -91.0172 323° Northwest 169 194 4,200 -629 Descending Chicago Center
Sun 12:10:51 PM 40.6167 -91.0531 324° Northwest 167 192 3,600 -484 Descending Chicago Center
Sun 12:11:53 PM 40.6556 -91.0844 329° Northwest 165 190 3,200 -484 Descending Chicago Center
Sun 12:12:55 PM 40.6933 -91.1172 327° Northwest 164 189 2,600 -362 Descending Chicago Center
Sun 12:14:22 PM 40.7475 -91.1472 337° Northwest 144 166 2,300 -121 Descending Chicago Center
Sun 12:15:24 PM 40.7903 -91.1544 353° North 152 175 2,300  Level Chicago Center
Sun 12:17:00 PM 40.7832 -91.1255 143° Southeast  Level Estimated
Sun 12:24:00 PM 40.7832 -91.1255 143° Southeast  Level Estimated

Login

Don't have an account? Register now (free) for customized features, flight alerts, and more!